GVAC

Amílcar Cabral International Airport

Espargos, Cape Verde
TAF GVAC 212300Z 2200/2306 04016KT 9999 FEW014 PROB30 TEMPO 2214/2218 05016G26KT
Issued Valid From Valid To
Sep-21 @ 23:00 UTC
(4 hours ago)
Sep-22 @ 00:00 UTC
(3 hours ago)
Sep-23 @ 06:00 UTC
(-1 days ago)
to
to
TAF GVAC 212300Z 2200/2306 04016KT 9999 FEW014 PROB30 TEMPO 2214/2218 05016G26KT
Issued Sep-21 @ 23:00 UTC
(4 hours ago)
Valid From Sep-22 @ 00:00 UTC
(3 hours ago)
Valid To Sep-23 @ 06:00 UTC
(-1 days ago)
-
-